sensor_id;sensor_type;location;lat;lon;timestamp;temperature;humidity
6724;DHT22;3399;52.530;13.304;2023-12-20T00:01:16;7.80;99.90
6724;DHT22;3399;52.530;13.304;2023-12-20T00:03:42;7.80;99.90
6724;DHT22;3399;52.530;13.304;2023-12-20T00:06:08;7.70;99.90
6724;DHT22;3399;52.530;13.304;2023-12-20T00:08:33;7.60;99.90
6724;DHT22;3399;52.530;13.304;2023-12-20T00:10:58;7.70;99.90
6724;DHT22;3399;52.530;13.304;2023-12-20T00:13:24;7.70;99.90
6724;DHT22;3399;52.530;13.304;2023-12-20T00:15:49;8.00;99.90
6724;DHT22;3399;52.530;13.304;2023-12-20T00:18:15;7.80;99.90
6724;DHT22;3399;52.530;13.304;2023-12-20T00:20:40;7.70;99.90
6724;DHT22;3399;52.530;13.304;2023-12-20T00:23:06;7.60;99.90
6724;DHT22;3399;52.530;13.304;2023-12-20T00:25:33;7.60;99.90
6724;DHT22;3399;52.530;13.304;2023-12-20T00:27:59;7.60;99.90
6724;DHT22;3399;52.530;13.304;2023-12-20T00:30:24;7.60;99.90
6724;DHT22;3399;52.530;13.304;2023-12-20T00:32:50;7.60;99.90
6724;DHT22;3399;52.530;13.304;2023-12-20T00:35:16;7.70;99.90
6724;DHT22;3399;52.530;13.304;2023-12-20T00:37:42;7.60;99.90
6724;DHT22;3399;52.530;13.304;2023-12-20T00:40:08;7.60;99.90
6724;DHT22;3399;52.530;13.304;2023-12-20T00:42:34;7.60;99.90
6724;DHT22;3399;52.530;13.304;2023-12-20T00:45:01;7.60;99.90
6724;DHT22;3399;52.530;13.304;2023-12-20T00:47:27;7.50;99.90
6724;DHT22;3399;52.530;13.304;2023-12-20T00:49:53;7.60;99.90
6724;DHT22;3399;52.530;13.304;2023-12-20T00:52:18;7.60;99.90
6724;DHT22;3399;52.530;13.304;2023-12-20T00:54:44;7.50;99.90
6724;DHT22;3399;52.530;13.304;2023-12-20T00:57:10;7.50;99.90
6724;DHT22;3399;52.530;13.304;2023-12-20T00:59:35;7.60;99.90
6724;DHT22;3399;52.530;13.304;2023-12-20T01:02:01;7.50;99.90
6724;DHT22;3399;52.530;13.304;2023-12-20T01:04:26;7.50;99.90
6724;DHT22;3399;52.530;13.304;2023-12-20T01:06:52;7.60;99.90
6724;DHT22;3399;52.530;13.304;2023-12-20T01:09:18;7.60;99.90
6724;DHT22;3399;52.530;13.304;2023-12-20T01:11:44;7.50;99.90
6724;DHT22;3399;52.530;13.304;2023-12-20T01:14:09;7.50;99.90
6724;DHT22;3399;52.530;13.304;2023-12-20T01:16:35;7.30;99.90
6724;DHT22;3399;52.530;13.304;2023-12-20T01:19:00;7.20;99.90
6724;DHT22;3399;52.530;13.304;2023-12-20T01:21:26;7.20;99.90
6724;DHT22;3399;52.530;13.304;2023-12-20T01:23:51;7.20;99.90
6724;DHT22;3399;52.530;13.304;2023-12-20T01:26:17;7.10;99.90
6724;DHT22;3399;52.530;13.304;2023-12-20T01:28:42;7.00;99.90
6724;DHT22;3399;52.530;13.304;2023-12-20T01:31:08;6.90;99.90
6724;DHT22;3399;52.530;13.304;2023-12-20T01:33:34;7.10;99.90
6724;DHT22;3399;52.530;13.304;2023-12-20T01:35:59;7.10;99.90
6724;DHT22;3399;52.530;13.304;2023-12-20T01:38:25;7.10;99.90
6724;DHT22;3399;52.530;13.304;2023-12-20T01:40:51;7.10;99.90
6724;DHT22;3399;52.530;13.304;2023-12-20T01:43:16;7.10;99.90
6724;DHT22;3399;52.530;13.304;2023-12-20T01:45:42;7.00;99.90
6724;DHT22;3399;52.530;13.304;2023-12-20T01:48:08;7.10;99.90
6724;DHT22;3399;52.530;13.304;2023-12-20T01:50:36;6.90;99.90
6724;DHT22;3399;52.530;13.304;2023-12-20T01:53:04;6.80;99.90
6724;DHT22;3399;52.530;13.304;2023-12-20T01:55:33;6.80;99.90
6724;DHT22;3399;52.530;13.304;2023-12-20T01:58:00;6.80;99.90
6724;DHT22;3399;52.530;13.304;2023-12-20T02:00:28;6.70;99.90
6724;DHT22;3399;52.530;13.304;2023-12-20T02:02:54;6.80;99.90
6724;DHT22;3399;52.530;13.304;2023-12-20T02:05:21;6.80;99.90
6724;DHT22;3399;52.530;13.304;2023-12-20T02:07:47;6.80;99.90
6724;DHT22;3399;52.530;13.304;2023-12-20T02:10:12;6.80;99.90
6724;DHT22;3399;52.530;13.304;2023-12-20T02:12:38;6.80;99.90
6724;DHT22;3399;52.530;13.304;2023-12-20T02:15:04;6.80;99.90
6724;DHT22;3399;52.530;13.304;2023-12-20T02:17:31;6.90;99.90
6724;DHT22;3399;52.530;13.304;2023-12-20T02:19:57;6.90;99.90
6724;DHT22;3399;52.530;13.304;2023-12-20T02:22:22;7.00;99.90
6724;DHT22;3399;52.530;13.304;2023-12-20T02:24:48;7.10;99.90
6724;DHT22;3399;52.530;13.304;2023-12-20T02:27:14;7.00;99.90
6724;DHT22;3399;52.530;13.304;2023-12-20T02:29:40;7.30;99.90
6724;DHT22;3399;52.530;13.304;2023-12-20T02:32:06;7.20;99.90
6724;DHT22;3399;52.530;13.304;2023-12-20T02:34:31;7.10;99.90
6724;DHT22;3399;52.530;13.304;2023-12-20T02:36:57;7.10;99.90
6724;DHT22;3399;52.530;13.304;2023-12-20T02:39:22;7.00;99.90
6724;DHT22;3399;52.530;13.304;2023-12-20T02:41:48;7.00;99.90
6724;DHT22;3399;52.530;13.304;2023-12-20T02:44:14;7.00;99.90
6724;DHT22;3399;52.530;13.304;2023-12-20T02:46:39;6.90;99.90
6724;DHT22;3399;52.530;13.304;2023-12-20T02:49:06;6.90;99.90
6724;DHT22;3399;52.530;13.304;2023-12-20T02:51:31;6.90;99.90
6724;DHT22;3399;52.530;13.304;2023-12-20T02:53:57;6.90;99.90
6724;DHT22;3399;52.530;13.304;2023-12-20T02:56:22;7.10;99.90
6724;DHT22;3399;52.530;13.304;2023-12-20T02:58:48;7.00;99.90
6724;DHT22;3399;52.530;13.304;2023-12-20T03:01:13;7.30;99.90
6724;DHT22;3399;52.530;13.304;2023-12-20T03:03:39;7.30;99.90
6724;DHT22;3399;52.530;13.304;2023-12-20T03:06:05;7.30;99.90
6724;DHT22;3399;52.530;13.304;2023-12-20T03:08:30;7.30;99.90
6724;DHT22;3399;52.530;13.304;2023-12-20T03:10:56;7.10;99.90
6724;DHT22;3399;52.530;13.304;2023-12-20T03:13:21;7.20;99.90
6724;DHT22;3399;52.530;13.304;2023-12-20T03:15:47;7.40;99.90
6724;DHT22;3399;52.530;13.304;2023-12-20T03:18:12;7.30;99.90
6724;DHT22;3399;52.530;13.304;2023-12-20T03:20:37;7.20;99.90
6724;DHT22;3399;52.530;13.304;2023-12-20T03:23:03;7.10;99.90
6724;DHT22;3399;52.530;13.304;2023-12-20T03:25:29;7.10;99.90
6724;DHT22;3399;52.530;13.304;2023-12-20T03:27:55;7.00;99.90
6724;DHT22;3399;52.530;13.304;2023-12-20T03:30:20;7.00;99.90
6724;DHT22;3399;52.530;13.304;2023-12-20T03:32:46;7.00;99.90
6724;DHT22;3399;52.530;13.304;2023-12-20T03:35:12;7.00;99.90
6724;DHT22;3399;52.530;13.304;2023-12-20T03:37:37;6.90;99.90
6724;DHT22;3399;52.530;13.304;2023-12-20T03:40:03;6.90;99.90
6724;DHT22;3399;52.530;13.304;2023-12-20T03:42:29;6.90;99.90
6724;DHT22;3399;52.530;13.304;2023-12-20T03:44:54;6.80;99.90
6724;DHT22;3399;52.530;13.304;2023-12-20T03:47:20;6.80;99.90
6724;DHT22;3399;52.530;13.304;2023-12-20T03:49:45;6.80;99.90
6724;DHT22;3399;52.530;13.304;2023-12-20T03:52:11;6.80;99.90
6724;DHT22;3399;52.530;13.304;2023-12-20T03:54:37;6.70;99.90
6724;DHT22;3399;52.530;13.304;2023-12-20T03:57:03;6.70;99.90
6724;DHT22;3399;52.530;13.304;2023-12-20T03:59:28;6.70;99.90
6724;DHT22;3399;52.530;13.304;2023-12-20T04:01:54;6.70;99.90
6724;DHT22;3399;52.530;13.304;2023-12-20T04:04:19;6.70;99.90
6724;DHT22;3399;52.530;13.304;2023-12-20T04:06:45;6.70;99.90
6724;DHT22;3399;52.530;13.304;2023-12-20T04:09:10;6.70;99.90
6724;DHT22;3399;52.530;13.304;2023-12-20T04:11:36;6.60;99.90
6724;DHT22;3399;52.530;13.304;2023-12-20T04:14:02;6.60;99.90
6724;DHT22;3399;52.530;13.304;2023-12-20T04:16:27;6.60;99.90
6724;DHT22;3399;52.530;13.304;2023-12-20T04:18:53;6.50;99.90
6724;DHT22;3399;52.530;13.304;2023-12-20T04:21:18;6.50;99.90
6724;DHT22;3399;52.530;13.304;2023-12-20T04:23:44;6.50;99.90
6724;DHT22;3399;52.530;13.304;2023-12-20T04:26:10;6.50;99.90
6724;DHT22;3399;52.530;13.304;2023-12-20T04:28:35;6.50;99.90
6724;DHT22;3399;52.530;13.304;2023-12-20T04:31:01;6.50;99.90
6724;DHT22;3399;52.530;13.304;2023-12-20T04:33:26;6.40;99.90
6724;DHT22;3399;52.530;13.304;2023-12-20T04:35:52;6.40;99.90
6724;DHT22;3399;52.530;13.304;2023-12-20T04:38:17;6.40;99.90
6724;DHT22;3399;52.530;13.304;2023-12-20T04:40:43;6.30;99.90
6724;DHT22;3399;52.530;13.304;2023-12-20T04:43:08;6.30;99.90
6724;DHT22;3399;52.530;13.304;2023-12-20T04:45:35;6.30;99.90
6724;DHT22;3399;52.530;13.304;2023-12-20T04:48:01;6.40;99.90
6724;DHT22;3399;52.530;13.304;2023-12-20T04:50:27;6.30;99.90
6724;DHT22;3399;52.530;13.304;2023-12-20T04:52:53;6.30;99.90
6724;DHT22;3399;52.530;13.304;2023-12-20T04:55:18;6.20;99.90
6724;DHT22;3399;52.530;13.304;2023-12-20T04:57:44;6.20;99.90
6724;DHT22;3399;52.530;13.304;2023-12-20T05:00:09;6.10;99.90
6724;DHT22;3399;52.530;13.304;2023-12-20T05:02:36;6.10;99.90
6724;DHT22;3399;52.530;13.304;2023-12-20T05:05:02;6.10;99.90
6724;DHT22;3399;52.530;13.304;2023-12-20T05:07:27;6.10;99.90
6724;DHT22;3399;52.530;13.304;2023-12-20T05:09:53;6.10;99.90
6724;DHT22;3399;52.530;13.304;2023-12-20T05:12:19;6.10;99.90
6724;DHT22;3399;52.530;13.304;2023-12-20T05:14:45;6.10;99.90
6724;DHT22;3399;52.530;13.304;2023-12-20T05:17:11;6.00;99.90
6724;DHT22;3399;52.530;13.304;2023-12-20T05:19:36;6.00;99.90
6724;DHT22;3399;52.530;13.304;2023-12-20T05:22:02;6.10;99.90
6724;DHT22;3399;52.530;13.304;2023-12-20T05:24:28;6.00;99.90
6724;DHT22;3399;52.530;13.304;2023-12-20T05:26:53;5.90;99.90
6724;DHT22;3399;52.530;13.304;2023-12-20T05:29:19;5.90;99.90
6724;DHT22;3399;52.530;13.304;2023-12-20T05:31:44;5.90;99.90
6724;DHT22;3399;52.530;13.304;2023-12-20T05:34:10;5.90;99.90
6724;DHT22;3399;52.530;13.304;2023-12-20T05:36:36;6.00;99.90
6724;DHT22;3399;52.530;13.304;2023-12-20T05:39:02;5.90;99.90
6724;DHT22;3399;52.530;13.304;2023-12-20T05:41:28;5.90;99.90
6724;DHT22;3399;52.530;13.304;2023-12-20T05:43:54;5.80;99.90
6724;DHT22;3399;52.530;13.304;2023-12-20T05:46:19;5.70;99.90
6724;DHT22;3399;52.530;13.304;2023-12-20T05:48:46;5.70;99.90
6724;DHT22;3399;52.530;13.304;2023-12-20T05:51:12;5.80;99.90
6724;DHT22;3399;52.530;13.304;2023-12-20T05:53:38;5.90;99.90
6724;DHT22;3399;52.530;13.304;2023-12-20T05:56:04;6.00;99.90
6724;DHT22;3399;52.530;13.304;2023-12-20T05:58:29;6.00;99.90
6724;DHT22;3399;52.530;13.304;2023-12-20T06:00:55;5.90;99.90
6724;DHT22;3399;52.530;13.304;2023-12-20T06:03:20;5.90;99.90
6724;DHT22;3399;52.530;13.304;2023-12-20T06:05:46;5.80;99.90
6724;DHT22;3399;52.530;13.304;2023-12-20T06:08:11;5.90;99.90
6724;DHT22;3399;52.530;13.304;2023-12-20T06:10:37;5.90;99.90
6724;DHT22;3399;52.530;13.304;2023-12-20T06:13:03;6.00;99.90
6724;DHT22;3399;52.530;13.304;2023-12-20T06:15:30;5.90;99.90
6724;DHT22;3399;52.530;13.304;2023-12-20T06:17:55;5.80;99.90
6724;DHT22;3399;52.530;13.304;2023-12-20T06:20:21;5.80;99.90
6724;DHT22;3399;52.530;13.304;2023-12-20T06:22:46;5.70;99.90
6724;DHT22;3399;52.530;13.304;2023-12-20T06:25:12;5.80;99.90
6724;DHT22;3399;52.530;13.304;2023-12-20T06:27:37;5.80;99.90
6724;DHT22;3399;52.530;13.304;2023-12-20T06:30:04;5.70;99.90
6724;DHT22;3399;52.530;13.304;2023-12-20T06:32:29;5.70;99.90
6724;DHT22;3399;52.530;13.304;2023-12-20T06:34:55;5.80;99.90
6724;DHT22;3399;52.530;13.304;2023-12-20T06:37:21;5.70;99.90
6724;DHT22;3399;52.530;13.304;2023-12-20T06:39:46;5.70;99.90
6724;DHT22;3399;52.530;13.304;2023-12-20T06:42:12;5.80;99.90
6724;DHT22;3399;52.530;13.304;2023-12-20T06:44:38;5.90;99.90
6724;DHT22;3399;52.530;13.304;2023-12-20T06:47:04;5.80;99.90
6724;DHT22;3399;52.530;13.304;2023-12-20T06:49:30;5.60;99.90
6724;DHT22;3399;52.530;13.304;2023-12-20T06:51:55;5.50;99.90
6724;DHT22;3399;52.530;13.304;2023-12-20T06:54:21;5.50;99.90
6724;DHT22;3399;52.530;13.304;2023-12-20T06:56:46;5.60;99.90
6724;DHT22;3399;52.530;13.304;2023-12-20T06:59:12;5.60;99.90
6724;DHT22;3399;52.530;13.304;2023-12-20T07:01:37;5.60;99.90
6724;DHT22;3399;52.530;13.304;2023-12-20T07:04:03;5.60;99.90
6724;DHT22;3399;52.530;13.304;2023-12-20T07:06:29;5.60;99.90
6724;DHT22;3399;52.530;13.304;2023-12-20T07:08:54;5.70;99.90
6724;DHT22;3399;52.530;13.304;2023-12-20T07:11:20;5.70;99.90
6724;DHT22;3399;52.530;13.304;2023-12-20T07:13:45;5.60;99.90
6724;DHT22;3399;52.530;13.304;2023-12-20T07:16:11;5.60;99.90
6724;DHT22;3399;52.530;13.304;2023-12-20T07:18:36;5.70;99.90
6724;DHT22;3399;52.530;13.304;2023-12-20T07:21:02;5.70;99.90
6724;DHT22;3399;52.530;13.304;2023-12-20T07:23:28;5.70;99.90
6724;DHT22;3399;52.530;13.304;2023-12-20T07:25:53;5.90;99.90
6724;DHT22;3399;52.530;13.304;2023-12-20T07:28:19;5.90;99.90
6724;DHT22;3399;52.530;13.304;2023-12-20T07:30:44;5.80;99.90
6724;DHT22;3399;52.530;13.304;2023-12-20T07:33:10;5.80;99.90
6724;DHT22;3399;52.530;13.304;2023-12-20T07:35:37;5.80;99.90
6724;DHT22;3399;52.530;13.304;2023-12-20T07:38:03;5.80;99.90
6724;DHT22;3399;52.530;13.304;2023-12-20T07:40:29;5.90;99.90
6724;DHT22;3399;52.530;13.304;2023-12-20T07:42:54;5.90;99.90
6724;DHT22;3399;52.530;13.304;2023-12-20T07:45:20;6.00;99.90
6724;DHT22;3399;52.530;13.304;2023-12-20T07:47:45;5.80;99.90
6724;DHT22;3399;52.530;13.304;2023-12-20T07:50:11;5.90;99.90
6724;DHT22;3399;52.530;13.304;2023-12-20T07:52:36;5.90;99.90
6724;DHT22;3399;52.530;13.304;2023-12-20T07:55:02;5.80;99.90
6724;DHT22;3399;52.530;13.304;2023-12-20T07:57:31;5.80;99.90
6724;DHT22;3399;52.530;13.304;2023-12-20T07:59:56;6.00;99.90
6724;DHT22;3399;52.530;13.304;2023-12-20T08:02:22;5.90;99.90
6724;DHT22;3399;52.530;13.304;2023-12-20T08:04:47;5.90;99.90
6724;DHT22;3399;52.530;13.304;2023-12-20T08:07:13;5.90;99.90
6724;DHT22;3399;52.530;13.304;2023-12-20T08:09:38;6.00;99.90
6724;DHT22;3399;52.530;13.304;2023-12-20T08:12:04;6.00;99.90
6724;DHT22;3399;52.530;13.304;2023-12-20T08:14:30;6.00;99.90
6724;DHT22;3399;52.530;13.304;2023-12-20T08:16:55;5.90;99.90
6724;DHT22;3399;52.530;13.304;2023-12-20T08:19:20;5.90;99.90
6724;DHT22;3399;52.530;13.304;2023-12-20T08:21:46;5.90;99.90
6724;DHT22;3399;52.530;13.304;2023-12-20T08:24:11;5.90;99.90
6724;DHT22;3399;52.530;13.304;2023-12-20T08:26:37;5.80;99.90
6724;DHT22;3399;52.530;13.304;2023-12-20T08:29:03;5.90;99.90
6724;DHT22;3399;52.530;13.304;2023-12-20T08:31:28;5.90;99.90
6724;DHT22;3399;52.530;13.304;2023-12-20T08:33:54;6.00;99.90
6724;DHT22;3399;52.530;13.304;2023-12-20T08:36:20;6.00;99.90
6724;DHT22;3399;52.530;13.304;2023-12-20T08:38:49;6.10;99.90
6724;DHT22;3399;52.530;13.304;2023-12-20T08:41:16;6.00;99.90
6724;DHT22;3399;52.530;13.304;2023-12-20T08:43:42;5.90;99.90
6724;DHT22;3399;52.530;13.304;2023-12-20T08:46:08;6.10;99.90
6724;DHT22;3399;52.530;13.304;2023-12-20T08:48:37;6.10;99.90
6724;DHT22;3399;52.530;13.304;2023-12-20T08:51:03;6.20;99.90
6724;DHT22;3399;52.530;13.304;2023-12-20T08:53:29;6.10;99.90
6724;DHT22;3399;52.530;13.304;2023-12-20T08:55:54;6.20;99.90
6724;DHT22;3399;52.530;13.304;2023-12-20T08:58:20;6.20;99.90
6724;DHT22;3399;52.530;13.304;2023-12-20T09:00:45;6.20;99.90
6724;DHT22;3399;52.530;13.304;2023-12-20T09:03:10;6.30;99.90
6724;DHT22;3399;52.530;13.304;2023-12-20T09:05:36;6.20;99.90
6724;DHT22;3399;52.530;13.304;2023-12-20T09:08:02;6.30;99.90
6724;DHT22;3399;52.530;13.304;2023-12-20T09:10:28;6.40;99.90
6724;DHT22;3399;52.530;13.304;2023-12-20T09:12:54;6.50;99.90
6724;DHT22;3399;52.530;13.304;2023-12-20T09:15:25;6.50;99.90
6724;DHT22;3399;52.530;13.304;2023-12-20T09:17:51;6.50;99.90
6724;DHT22;3399;52.530;13.304;2023-12-20T09:20:16;6.50;99.90
6724;DHT22;3399;52.530;13.304;2023-12-20T09:22:42;6.40;99.90
6724;DHT22;3399;52.530;13.304;2023-12-20T09:25:08;6.40;99.90
6724;DHT22;3399;52.530;13.304;2023-12-20T09:27:34;6.40;99.90
6724;DHT22;3399;52.530;13.304;2023-12-20T09:29:59;6.50;99.90
6724;DHT22;3399;52.530;13.304;2023-12-20T09:32:25;6.40;99.90
6724;DHT22;3399;52.530;13.304;2023-12-20T09:34:51;6.30;99.90
6724;DHT22;3399;52.530;13.304;2023-12-20T09:37:16;6.50;99.90
6724;DHT22;3399;52.530;13.304;2023-12-20T09:39:41;6.50;99.90
6724;DHT22;3399;52.530;13.304;2023-12-20T09:42:07;6.70;99.90
6724;DHT22;3399;52.530;13.304;2023-12-20T09:44:33;6.80;99.90
6724;DHT22;3399;52.530;13.304;2023-12-20T09:47:03;7.20;99.90
6724;DHT22;3399;52.530;13.304;2023-12-20T09:49:29;7.40;99.90
6724;DHT22;3399;52.530;13.304;2023-12-20T09:51:55;7.60;99.90
6724;DHT22;3399;52.530;13.304;2023-12-20T09:54:22;7.50;99.90
6724;DHT22;3399;52.530;13.304;2023-12-20T09:56:48;7.30;99.90
6724;DHT22;3399;52.530;13.304;2023-12-20T09:59:14;7.20;99.90
6724;DHT22;3399;52.530;13.304;2023-12-20T10:01:40;7.30;99.90
6724;DHT22;3399;52.530;13.304;2023-12-20T10:04:08;7.40;99.90
6724;DHT22;3399;52.530;13.304;2023-12-20T10:06:46;7.30;99.90
6724;DHT22;3399;52.530;13.304;2023-12-20T10:09:12;7.20;99.90
6724;DHT22;3399;52.530;13.304;2023-12-20T10:11:39;7.20;99.90
6724;DHT22;3399;52.530;13.304;2023-12-20T10:14:06;7.20;99.90
6724;DHT22;3399;52.530;13.304;2023-12-20T10:16:32;7.10;99.90
6724;DHT22;3399;52.530;13.304;2023-12-20T10:18:59;7.20;99.90
6724;DHT22;3399;52.530;13.304;2023-12-20T10:21:25;7.20;99.90
6724;DHT22;3399;52.530;13.304;2023-12-20T10:23:55;7.20;99.90
6724;DHT22;3399;52.530;13.304;2023-12-20T10:26:22;7.40;99.90
6724;DHT22;3399;52.530;13.304;2023-12-20T10:28:51;7.50;99.90
6724;DHT22;3399;52.530;13.304;2023-12-20T10:31:32;7.50;99.90
6724;DHT22;3399;52.530;13.304;2023-12-20T10:33:58;7.40;99.90
6724;DHT22;3399;52.530;13.304;2023-12-20T10:36:29;7.30;99.90
6724;DHT22;3399;52.530;13.304;2023-12-20T10:38:55;7.30;99.90
6724;DHT22;3399;52.530;13.304;2023-12-20T10:41:30;7.30;99.90
6724;DHT22;3399;52.530;13.304;2023-12-20T10:44:03;7.40;99.90
6724;DHT22;3399;52.530;13.304;2023-12-20T10:46:33;7.40;99.90
6724;DHT22;3399;52.530;13.304;2023-12-20T10:48:59;7.40;99.90
6724;DHT22;3399;52.530;13.304;2023-12-20T10:51:27;7.50;99.90
6724;DHT22;3399;52.530;13.304;2023-12-20T10:53:55;7.40;99.90
6724;DHT22;3399;52.530;13.304;2023-12-20T10:56:21;7.60;99.90
6724;DHT22;3399;52.530;13.304;2023-12-20T10:58:49;7.40;99.90
6724;DHT22;3399;52.530;13.304;2023-12-20T11:01:16;7.60;99.90
6724;DHT22;3399;52.530;13.304;2023-12-20T11:03:47;7.50;99.90
6724;DHT22;3399;52.530;13.304;2023-12-20T11:06:23;7.30;99.90
6724;DHT22;3399;52.530;13.304;2023-12-20T11:08:53;7.20;99.90
6724;DHT22;3399;52.530;13.304;2023-12-20T11:14:19;7.20;99.90
6724;DHT22;3399;52.530;13.304;2023-12-20T11:16:45;7.40;99.90
6724;DHT22;3399;52.530;13.304;2023-12-20T11:19:11;7.30;99.90
6724;DHT22;3399;52.530;13.304;2023-12-20T11:21:39;7.30;99.90
6724;DHT22;3399;52.530;13.304;2023-12-20T11:24:05;7.30;99.90
6724;DHT22;3399;52.530;13.304;2023-12-20T11:26:31;7.30;99.90
6724;DHT22;3399;52.530;13.304;2023-12-20T11:29:31;7.20;99.90
6724;DHT22;3399;52.530;13.304;2023-12-20T11:31:57;7.10;99.90
6724;DHT22;3399;52.530;13.304;2023-12-20T11:34:27;7.00;99.90
6724;DHT22;3399;52.530;13.304;2023-12-20T11:36:59;7.00;99.90
6724;DHT22;3399;52.530;13.304;2023-12-20T11:39:26;7.20;99.90
6724;DHT22;3399;52.530;13.304;2023-12-20T11:41:55;7.40;99.90
6724;DHT22;3399;52.530;13.304;2023-12-20T11:44:21;7.40;99.90
6724;DHT22;3399;52.530;13.304;2023-12-20T11:46:47;7.20;99.90
6724;DHT22;3399;52.530;13.304;2023-12-20T11:49:12;7.40;99.90
6724;DHT22;3399;52.530;13.304;2023-12-20T11:51:41;7.20;99.90
6724;DHT22;3399;52.530;13.304;2023-12-20T11:54:07;7.00;99.90
6724;DHT22;3399;52.530;13.304;2023-12-20T11:56:35;7.10;99.90
6724;DHT22;3399;52.530;13.304;2023-12-20T11:59:00;6.90;99.90
6724;DHT22;3399;52.530;13.304;2023-12-20T12:01:26;7.00;99.90
6724;DHT22;3399;52.530;13.304;2023-12-20T12:04:06;7.00;99.90
6724;DHT22;3399;52.530;13.304;2023-12-20T12:06:32;7.00;99.90
6724;DHT22;3399;52.530;13.304;2023-12-20T12:08:57;7.00;99.90
6724;DHT22;3399;52.530;13.304;2023-12-20T12:11:23;7.10;99.90
6724;DHT22;3399;52.530;13.304;2023-12-20T12:13:49;7.10;99.90
6724;DHT22;3399;52.530;13.304;2023-12-20T12:16:18;7.20;99.90
6724;DHT22;3399;52.530;13.304;2023-12-20T12:18:54;7.30;99.90
6724;DHT22;3399;52.530;13.304;2023-12-20T12:21:20;7.30;99.90
6724;DHT22;3399;52.530;13.304;2023-12-20T12:23:46;7.20;99.90
6724;DHT22;3399;52.530;13.304;2023-12-20T12:26:11;7.20;99.90
6724;DHT22;3399;52.530;13.304;2023-12-20T12:28:40;7.20;99.90
6724;DHT22;3399;52.530;13.304;2023-12-20T12:31:05;7.10;99.90
6724;DHT22;3399;52.530;13.304;2023-12-20T12:33:31;7.00;99.90
6724;DHT22;3399;52.530;13.304;2023-12-20T12:35:56;6.90;99.90
6724;DHT22;3399;52.530;13.304;2023-12-20T12:38:23;6.70;99.90
6724;DHT22;3399;52.530;13.304;2023-12-20T12:40:50;6.70;99.90
6724;DHT22;3399;52.530;13.304;2023-12-20T12:43:15;6.50;99.90
6724;DHT22;3399;52.530;13.304;2023-12-20T12:45:41;6.40;99.90
6724;DHT22;3399;52.530;13.304;2023-12-20T12:48:07;6.40;99.90
6724;DHT22;3399;52.530;13.304;2023-12-20T12:50:32;6.40;99.90
6724;DHT22;3399;52.530;13.304;2023-12-20T12:52:58;6.50;99.90
6724;DHT22;3399;52.530;13.304;2023-12-20T12:55:23;6.40;99.90
6724;DHT22;3399;52.530;13.304;2023-12-20T12:57:49;6.40;99.90
6724;DHT22;3399;52.530;13.304;2023-12-20T13:00:14;6.50;99.90
6724;DHT22;3399;52.530;13.304;2023-12-20T13:02:40;6.50;99.90
6724;DHT22;3399;52.530;13.304;2023-12-20T13:05:09;6.70;99.90
6724;DHT22;3399;52.530;13.304;2023-12-20T13:07:34;6.60;99.90
6724;DHT22;3399;52.530;13.304;2023-12-20T13:10:00;6.70;99.90
6724;DHT22;3399;52.530;13.304;2023-12-20T13:12:26;6.70;99.90
6724;DHT22;3399;52.530;13.304;2023-12-20T13:14:51;6.60;99.90
6724;DHT22;3399;52.530;13.304;2023-12-20T13:17:17;6.50;99.90
6724;DHT22;3399;52.530;13.304;2023-12-20T13:19:43;6.80;99.90
6724;DHT22;3399;52.530;13.304;2023-12-20T13:22:08;6.70;99.90
6724;DHT22;3399;52.530;13.304;2023-12-20T13:24:34;6.30;99.90
6724;DHT22;3399;52.530;13.304;2023-12-20T13:27:00;5.80;99.90
6724;DHT22;3399;52.530;13.304;2023-12-20T13:29:25;5.50;99.90
6724;DHT22;3399;52.530;13.304;2023-12-20T13:31:54;5.50;99.90
6724;DHT22;3399;52.530;13.304;2023-12-20T13:34:19;5.50;99.90
6724;DHT22;3399;52.530;13.304;2023-12-20T13:36:45;5.40;99.90
6724;DHT22;3399;52.530;13.304;2023-12-20T13:39:12;5.30;99.90
6724;DHT22;3399;52.530;13.304;2023-12-20T13:41:39;5.20;99.90
6724;DHT22;3399;52.530;13.304;2023-12-20T13:44:04;5.10;99.90
6724;DHT22;3399;52.530;13.304;2023-12-20T13:46:30;5.10;99.90
6724;DHT22;3399;52.530;13.304;2023-12-20T13:48:56;5.10;99.90
6724;DHT22;3399;52.530;13.304;2023-12-20T13:51:21;5.20;99.90
6724;DHT22;3399;52.530;13.304;2023-12-20T13:53:47;5.20;99.90
6724;DHT22;3399;52.530;13.304;2023-12-20T13:56:14;5.10;99.90
6724;DHT22;3399;52.530;13.304;2023-12-20T13:58:39;5.10;99.90
6724;DHT22;3399;52.530;13.304;2023-12-20T14:01:05;5.00;99.90
6724;DHT22;3399;52.530;13.304;2023-12-20T14:03:32;5.10;99.90
6724;DHT22;3399;52.530;13.304;2023-12-20T14:05:57;5.00;99.90
6724;DHT22;3399;52.530;13.304;2023-12-20T14:08:22;5.00;99.90
6724;DHT22;3399;52.530;13.304;2023-12-20T14:10:49;5.10;99.90
6724;DHT22;3399;52.530;13.304;2023-12-20T14:13:15;5.00;99.90
6724;DHT22;3399;52.530;13.304;2023-12-20T14:15:40;5.00;99.90
6724;DHT22;3399;52.530;13.304;2023-12-20T14:18:06;4.90;99.90
6724;DHT22;3399;52.530;13.304;2023-12-20T14:20:33;5.00;99.90
6724;DHT22;3399;52.530;13.304;2023-12-20T14:23:02;4.90;99.90
6724;DHT22;3399;52.530;13.304;2023-12-20T14:25:28;5.00;99.90
6724;DHT22;3399;52.530;13.304;2023-12-20T14:27:54;5.00;99.90
6724;DHT22;3399;52.530;13.304;2023-12-20T14:30:19;4.90;99.90
6724;DHT22;3399;52.530;13.304;2023-12-20T14:32:45;4.90;99.90
6724;DHT22;3399;52.530;13.304;2023-12-20T14:35:10;4.90;99.90
6724;DHT22;3399;52.530;13.304;2023-12-20T14:37:37;5.00;99.90
6724;DHT22;3399;52.530;13.304;2023-12-20T14:40:08;5.00;99.90
6724;DHT22;3399;52.530;13.304;2023-12-20T14:42:40;5.20;99.90
6724;DHT22;3399;52.530;13.304;2023-12-20T14:45:06;5.10;99.90
6724;DHT22;3399;52.530;13.304;2023-12-20T14:47:32;5.10;99.90
6724;DHT22;3399;52.530;13.304;2023-12-20T14:49:57;5.00;99.90
6724;DHT22;3399;52.530;13.304;2023-12-20T14:52:22;5.10;99.90
6724;DHT22;3399;52.530;13.304;2023-12-20T14:54:49;5.10;99.90
6724;DHT22;3399;52.530;13.304;2023-12-20T14:57:14;5.20;99.90
6724;DHT22;3399;52.530;13.304;2023-12-20T14:59:40;5.20;99.90
6724;DHT22;3399;52.530;13.304;2023-12-20T15:02:05;5.10;99.90
6724;DHT22;3399;52.530;13.304;2023-12-20T15:04:32;5.20;99.90
6724;DHT22;3399;52.530;13.304;2023-12-20T15:06:57;5.20;99.90
6724;DHT22;3399;52.530;13.304;2023-12-20T15:09:23;5.30;99.90
6724;DHT22;3399;52.530;13.304;2023-12-20T15:11:49;5.30;99.90
6724;DHT22;3399;52.530;13.304;2023-12-20T15:14:15;5.20;99.90
6724;DHT22;3399;52.530;13.304;2023-12-20T15:16:44;5.30;99.90
6724;DHT22;3399;52.530;13.304;2023-12-20T15:19:11;5.20;99.90
6724;DHT22;3399;52.530;13.304;2023-12-20T15:21:37;5.30;99.90
6724;DHT22;3399;52.530;13.304;2023-12-20T15:24:07;5.20;99.90
6724;DHT22;3399;52.530;13.304;2023-12-20T15:26:39;5.20;99.90
6724;DHT22;3399;52.530;13.304;2023-12-20T15:29:05;5.30;99.90
6724;DHT22;3399;52.530;13.304;2023-12-20T15:31:31;5.20;99.90
6724;DHT22;3399;52.530;13.304;2023-12-20T15:33:58;5.30;99.90
6724;DHT22;3399;52.530;13.304;2023-12-20T15:36:24;5.10;99.90
6724;DHT22;3399;52.530;13.304;2023-12-20T15:38:49;5.00;99.90
6724;DHT22;3399;52.530;13.304;2023-12-20T15:41:18;5.00;99.90
6724;DHT22;3399;52.530;13.304;2023-12-20T15:43:44;4.80;99.90
6724;DHT22;3399;52.530;13.304;2023-12-20T15:46:10;4.90;99.90
6724;DHT22;3399;52.530;13.304;2023-12-20T15:48:36;4.90;99.90
6724;DHT22;3399;52.530;13.304;2023-12-20T15:51:05;4.80;99.90
6724;DHT22;3399;52.530;13.304;2023-12-20T15:53:31;4.80;99.90
6724;DHT22;3399;52.530;13.304;2023-12-20T15:55:57;4.90;99.90
6724;DHT22;3399;52.530;13.304;2023-12-20T15:58:23;4.80;99.90